createdAt,value
2022-12-25T00:01:24.209Z,67.10
2022-12-25T00:03:51.170Z,66.52
2022-12-25T00:06:18.181Z,66.69
2022-12-25T00:08:44.830Z,66.87
2022-12-25T00:11:13.264Z,67.36
2022-12-25T00:13:39.930Z,66.69
2022-12-25T00:16:08.214Z,66.84
2022-12-25T00:18:34.857Z,66.65
2022-12-25T00:21:03.147Z,67.15
2022-12-25T00:23:29.875Z,66.76
2022-12-25T00:25:56.485Z,66.79
2022-12-25T00:28:23.240Z,67.06
2022-12-25T00:30:50.159Z,66.86
2022-12-25T00:33:16.831Z,66.89
2022-12-25T00:35:43.479Z,66.52
2022-12-25T00:38:10.135Z,66.37
2022-12-25T00:40:43.456Z,66.42
2022-12-25T00:43:10.186Z,66.39
2022-12-25T00:45:36.969Z,66.43
2022-12-25T00:48:03.616Z,66.14
2022-12-25T00:50:30.209Z,66.68
2022-12-25T00:52:56.817Z,66.48
2022-12-25T00:55:23.421Z,66.54
2022-12-25T00:57:50.076Z,66.26
2022-12-25T01:00:16.720Z,66.63
2022-12-25T01:02:43.554Z,66.82
2022-12-25T01:05:10.269Z,66.06
2022-12-25T01:07:36.868Z,66.64
2022-12-25T01:10:03.783Z,66.75
2022-12-25T01:12:31.217Z,66.29
2022-12-25T01:14:57.882Z,65.65
2022-12-25T01:17:24.500Z,66.19
2022-12-25T01:19:51.157Z,65.84
2022-12-25T01:22:17.775Z,66.07
2022-12-25T01:24:44.486Z,65.92
2022-12-25T01:27:11.411Z,65.85
2022-12-25T01:29:38.175Z,66.14
2022-12-25T01:32:05.196Z,65.85
2022-12-25T01:34:31.858Z,66.10
2022-12-25T01:36:58.455Z,65.90
2022-12-25T01:39:25.119Z,65.59
2022-12-25T01:41:51.750Z,65.67
2022-12-25T01:44:18.285Z,65.83
2022-12-25T01:46:45.135Z,66.20
2022-12-25T01:49:16.679Z,66.14
2022-12-25T01:51:53.779Z,66.04
2022-12-25T01:54:28.307Z,65.82
2022-12-25T01:56:56.298Z,66.00
2022-12-25T01:59:23.400Z,66.29
2022-12-25T02:01:50.102Z,65.89
2022-12-25T02:04:25.637Z,65.86
2022-12-25T02:06:52.285Z,66.12
2022-12-25T02:09:18.910Z,66.21
2022-12-25T02:11:46.260Z,66.02
2022-12-25T02:14:12.906Z,66.25
2022-12-25T02:16:58.074Z,66.23
2022-12-25T02:19:42.971Z,66.33
2022-12-25T02:22:34.518Z,66.23
2022-12-25T02:25:38.316Z,65.86
2022-12-25T02:28:25.849Z,65.54
2022-12-25T02:30:55.052Z,65.70
2022-12-25T02:33:29.180Z,66.05
2022-12-25T02:35:55.831Z,66.11
2022-12-25T02:38:31.437Z,65.71
2022-12-25T02:40:59.096Z,65.93
2022-12-25T02:43:31.025Z,66.24
2022-12-25T02:46:03.031Z,65.67
2022-12-25T02:48:31.985Z,66.03
2022-12-25T02:50:58.765Z,65.60
2022-12-25T02:53:25.348Z,65.87
2022-12-25T02:55:52.054Z,65.85
2022-12-25T02:58:20.410Z,66.03
2022-12-25T03:00:48.862Z,65.84
2022-12-25T03:03:15.507Z,65.66
2022-12-25T03:05:42.133Z,66.08
2022-12-25T03:08:11.749Z,66.20
2022-12-25T03:10:40.009Z,65.71
2022-12-25T03:13:12.999Z,66.25
2022-12-25T03:15:39.635Z,65.97
2022-12-25T03:18:11.994Z,65.94
2022-12-25T03:20:38.656Z,66.27
2022-12-25T03:23:05.274Z,65.82
2022-12-25T03:25:31.923Z,65.72
2022-12-25T03:27:58.613Z,66.16
2022-12-25T03:30:48.073Z,66.26
2022-12-25T03:33:43.733Z,65.91
2022-12-25T03:36:15.256Z,65.88
2022-12-25T03:39:06.391Z,65.85
2022-12-25T03:41:42.947Z,66.80
2022-12-25T03:44:14.563Z,66.78
2022-12-25T03:46:46.914Z,66.38
2022-12-25T03:49:19.541Z,66.19
2022-12-25T03:51:46.216Z,66.43
2022-12-25T03:54:12.869Z,66.32
2022-12-25T03:56:39.545Z,66.15
2022-12-25T03:59:06.193Z,65.95
2022-12-25T04:01:32.835Z,65.76
2022-12-25T04:04:00.488Z,65.83
2022-12-25T04:06:27.137Z,66.13
2022-12-25T04:08:53.787Z,65.98
2022-12-25T04:11:20.434Z,66.22
2022-12-25T04:13:47.052Z,66.15
2022-12-25T04:16:13.718Z,66.15
2022-12-25T04:18:40.377Z,65.91
2022-12-25T04:21:07.107Z,66.10
2022-12-25T04:23:33.730Z,65.70
2022-12-25T04:26:00.365Z,65.84
2022-12-25T04:28:27.051Z,65.98
2022-12-25T04:30:53.720Z,65.90
2022-12-25T04:33:20.358Z,65.74
2022-12-25T04:35:47.684Z,66.32
2022-12-25T04:38:14.276Z,66.57
2022-12-25T04:40:40.882Z,65.99
2022-12-25T04:43:07.526Z,66.08
2022-12-25T04:45:34.111Z,66.97
2022-12-25T04:48:00.777Z,66.42
2022-12-25T04:50:27.424Z,66.19
2022-12-25T04:52:54.093Z,66.31
2022-12-25T04:55:20.703Z,66.52
2022-12-25T04:57:47.290Z,66.46
2022-12-25T05:00:14.130Z,66.67
2022-12-25T05:02:40.971Z,66.46
2022-12-25T05:05:07.894Z,66.66
2022-12-25T05:07:34.537Z,66.33
2022-12-25T05:10:01.184Z,65.79
2022-12-25T05:12:27.779Z,66.23
2022-12-25T05:14:54.360Z,65.87
2022-12-25T05:17:21.000Z,66.02
2022-12-25T05:19:47.624Z,65.90
2022-12-25T05:22:14.209Z,66.41
2022-12-25T05:24:40.836Z,66.32
2022-12-25T05:27:07.499Z,66.69
2022-12-25T05:29:34.273Z,66.56
2022-12-25T05:32:00.920Z,66.67
2022-12-25T05:34:27.525Z,66.39
2022-12-25T05:36:54.162Z,66.31
2022-12-25T05:39:20.812Z,66.31
2022-12-25T05:41:47.491Z,66.38
2022-12-25T05:44:14.163Z,66.25
2022-12-25T05:46:40.858Z,66.35
2022-12-25T05:49:07.533Z,66.32
2022-12-25T05:51:34.178Z,66.23
2022-12-25T05:54:00.765Z,66.52
2022-12-25T05:56:27.361Z,66.09
2022-12-25T05:58:54.086Z,66.24
2022-12-25T06:01:25.008Z,65.95
2022-12-25T06:03:51.750Z,66.29
2022-12-25T06:06:18.455Z,66.14
2022-12-25T06:08:45.101Z,65.97
2022-12-25T06:11:12.726Z,66.20
2022-12-25T06:13:39.376Z,66.04
2022-12-25T06:16:07.242Z,66.10
2022-12-25T06:18:41.800Z,65.72
2022-12-25T06:21:11.955Z,65.91
2022-12-25T06:23:38.790Z,66.04
2022-12-25T06:26:06.462Z,65.99
2022-12-25T06:28:33.081Z,66.08
2022-12-25T06:30:59.672Z,65.95
2022-12-25T06:33:26.311Z,65.64
2022-12-25T06:35:52.955Z,66.23
2022-12-25T06:38:19.574Z,66.11
2022-12-25T06:40:46.214Z,65.91
2022-12-25T06:43:12.877Z,65.95
2022-12-25T06:45:39.498Z,65.99
2022-12-25T06:48:06.198Z,66.28
2022-12-25T06:50:32.838Z,66.27
2022-12-25T06:52:59.440Z,65.91
2022-12-25T06:55:27.130Z,65.73
2022-12-25T06:57:53.739Z,66.09
2022-12-25T07:00:20.413Z,65.98
2022-12-25T07:02:47.548Z,65.64
2022-12-25T07:05:14.264Z,65.58
2022-12-25T07:07:40.918Z,65.58
2022-12-25T07:10:07.983Z,65.99
2022-12-25T07:12:34.624Z,65.61
2022-12-25T07:15:01.230Z,65.54
2022-12-25T07:17:27.828Z,65.61
2022-12-25T07:19:54.510Z,65.75
2022-12-25T07:22:21.175Z,65.86
2022-12-25T07:24:47.856Z,65.71
2022-12-25T07:27:14.526Z,65.92
2022-12-25T07:29:41.116Z,66.10
2022-12-25T07:32:07.844Z,66.52
2022-12-25T07:34:34.585Z,66.31
2022-12-25T07:37:01.265Z,66.10
2022-12-25T07:39:27.924Z,66.15
2022-12-25T07:41:54.526Z,65.76
2022-12-25T07:44:21.163Z,66.08
2022-12-25T07:46:48.063Z,66.32
2022-12-25T07:49:14.729Z,66.15
2022-12-25T07:51:41.368Z,65.99
2022-12-25T07:54:08.005Z,65.94
2022-12-25T07:56:34.686Z,65.79
2022-12-25T07:59:02.513Z,66.02
2022-12-25T08:01:29.331Z,66.16
2022-12-25T08:03:58.052Z,66.12
2022-12-25T08:06:26.397Z,65.73
2022-12-25T08:08:53.087Z,65.81
2022-12-25T08:11:19.715Z,65.48
2022-12-25T08:13:46.395Z,65.73
2022-12-25T08:16:13.173Z,65.72
2022-12-25T08:18:40.034Z,65.65
2022-12-25T08:21:11.183Z,65.52
2022-12-25T08:23:39.348Z,65.26
2022-12-25T08:26:06.703Z,64.97
2022-12-25T08:28:34.618Z,65.38
2022-12-25T08:31:14.817Z,65.83
2022-12-25T08:33:41.635Z,65.65
2022-12-25T08:36:09.446Z,65.58
2022-12-25T08:38:36.176Z,65.45
2022-12-25T08:41:02.951Z,64.86
2022-12-25T08:43:29.609Z,65.10
2022-12-25T08:45:56.348Z,65.06
2022-12-25T08:48:23.034Z,65.21
2022-12-25T08:50:50.152Z,64.89
2022-12-25T08:53:17.055Z,63.21
2022-12-25T08:55:43.800Z,63.65
2022-12-25T08:58:10.434Z,63.40
2022-12-25T09:00:37.090Z,63.42
2022-12-25T09:03:04.098Z,63.08
2022-12-25T09:05:30.802Z,61.65
2022-12-25T09:07:57.427Z,61.71
2022-12-25T09:10:24.137Z,63.03
2022-12-25T09:12:50.780Z,63.36
2022-12-25T09:15:17.522Z,62.69
2022-12-25T09:17:44.205Z,62.68
2022-12-25T09:20:10.896Z,61.35
2022-12-25T09:22:37.611Z,62.39
2022-12-25T09:25:04.582Z,60.98
2022-12-25T09:27:31.212Z,60.56
2022-12-25T09:29:57.869Z,60.75
2022-12-25T09:32:24.487Z,60.77
2022-12-25T09:34:51.143Z,60.30
2022-12-25T09:37:17.791Z,60.88
2022-12-25T09:39:46.565Z,60.75
2022-12-25T09:42:21.232Z,61.39
2022-12-25T09:44:56.436Z,60.46
2022-12-25T09:47:27.880Z,61.09
2022-12-25T09:49:57.022Z,60.52
2022-12-25T09:52:34.567Z,60.06
2022-12-25T09:55:20.720Z,60.58
2022-12-25T09:57:58.596Z,61.11
2022-12-25T10:00:29.339Z,60.37
2022-12-25T10:03:19.148Z,61.15
2022-12-25T10:05:54.683Z,61.11
2022-12-25T10:08:58.417Z,60.14
2022-12-25T10:11:24.911Z,60.64
2022-12-25T10:14:19.287Z,60.56
2022-12-25T10:17:18.059Z,61.09
2022-12-25T10:20:05.809Z,60.62
2022-12-25T10:22:36.132Z,60.32
2022-12-25T10:25:03.161Z,60.11
2022-12-25T10:27:34.016Z,60.65
2022-12-25T10:30:00.625Z,60.43
2022-12-25T10:32:27.487Z,59.21
2022-12-25T10:34:54.108Z,59.38
2022-12-25T10:37:20.749Z,59.24
2022-12-25T10:39:47.413Z,58.65
2022-12-25T10:42:35.593Z,58.96
2022-12-25T10:45:04.928Z,58.86
2022-12-25T10:47:33.045Z,58.91
2022-12-25T10:50:00.177Z,58.48
2022-12-25T10:52:28.311Z,59.06
2022-12-25T10:54:55.692Z,59.23
2022-12-25T10:57:23.808Z,58.78
2022-12-25T10:59:56.076Z,59.60
2022-12-25T11:02:30.455Z,59.31
2022-12-25T11:05:08.484Z,58.79
2022-12-25T11:07:36.004Z,58.79
2022-12-25T11:10:26.437Z,58.51
2022-12-25T11:12:53.131Z,58.14
2022-12-25T11:15:34.624Z,58.71
2022-12-25T11:18:01.282Z,59.35
2022-12-25T11:20:27.938Z,58.85
2022-12-25T11:22:54.629Z,58.24
2022-12-25T11:25:23.652Z,59.71
2022-12-25T11:28:00.705Z,60.05
2022-12-25T11:30:29.203Z,60.37
2022-12-25T11:32:55.843Z,60.36
2022-12-25T11:35:24.139Z,59.15
2022-12-25T11:37:53.991Z,59.87
2022-12-25T11:40:50.568Z,60.33
2022-12-25T11:43:35.621Z,59.19
2022-12-25T11:46:26.406Z,57.95
2022-12-25T11:49:01.252Z,57.55
2022-12-25T11:51:35.387Z,57.73
2022-12-25T11:54:27.631Z,58.00
2022-12-25T11:56:54.500Z,58.07
2022-12-25T11:59:27.676Z,58.23
2022-12-25T12:02:17.645Z,57.89
2022-12-25T12:04:44.459Z,57.61
2022-12-25T12:07:25.759Z,57.78
2022-12-25T12:09:58.432Z,57.64
2022-12-25T12:12:52.403Z,57.41
2022-12-25T12:15:26.581Z,57.52
2022-12-25T12:17:53.186Z,56.89
2022-12-25T12:20:31.078Z,56.13
2022-12-25T12:22:57.751Z,57.05
2022-12-25T12:25:24.353Z,57.01
2022-12-25T12:28:04.826Z,57.42
2022-12-25T12:30:35.373Z,56.83
2022-12-25T12:33:06.055Z,57.09
2022-12-25T12:35:34.575Z,56.89
2022-12-25T12:38:05.149Z,56.97
2022-12-25T12:40:41.063Z,57.29
2022-12-25T12:43:30.478Z,57.42
2022-12-25T12:46:08.053Z,57.80
2022-12-25T12:48:39.876Z,57.84
2022-12-25T12:51:08.876Z,58.18
2022-12-25T12:53:35.592Z,57.89
2022-12-25T12:56:12.653Z,58.28
2022-12-25T12:58:41.469Z,58.22
2022-12-25T13:01:11.286Z,58.63
2022-12-25T13:03:48.717Z,58.73
2022-12-25T13:06:18.881Z,57.82
2022-12-25T13:08:58.271Z,57.74
2022-12-25T13:11:28.717Z,58.14
2022-12-25T13:13:56.823Z,58.11
2022-12-25T13:16:29.822Z,57.85
2022-12-25T13:18:56.529Z,58.24
2022-12-25T13:21:25.189Z,58.09
2022-12-25T13:23:59.727Z,58.36
2022-12-25T13:26:26.397Z,58.64
2022-12-25T13:28:53.068Z,58.63
2022-12-25T13:31:20.929Z,58.91
2022-12-25T13:34:05.133Z,59.24
2022-12-25T13:36:38.538Z,59.92
2022-12-25T13:39:07.662Z,59.59
2022-12-25T13:41:36.937Z,59.93
2022-12-25T13:44:03.621Z,60.42
2022-12-25T13:46:30.425Z,60.60
2022-12-25T13:49:00.416Z,60.35
2022-12-25T13:51:27.792Z,59.24
2022-12-25T13:54:05.332Z,60.18
2022-12-25T13:56:31.953Z,60.14
2022-12-25T13:58:58.619Z,60.14
2022-12-25T14:01:25.422Z,59.21
2022-12-25T14:03:52.164Z,59.14
2022-12-25T14:06:20.945Z,60.13
2022-12-25T14:08:47.853Z,60.66
2022-12-25T14:11:15.567Z,59.86
2022-12-25T14:13:43.083Z,60.78
2022-12-25T14:16:10.012Z,61.46
2022-12-25T14:18:36.709Z,61.26
2022-12-25T14:21:14.096Z,61.22
2022-12-25T14:23:47.725Z,61.32
2022-12-25T14:26:21.361Z,61.39
2022-12-25T14:28:55.369Z,61.29
2022-12-25T14:31:22.213Z,61.49
2022-12-25T14:33:48.945Z,60.81
2022-12-25T14:36:15.620Z,61.42
2022-12-25T14:38:42.240Z,62.80
2022-12-25T14:41:22.624Z,62.70
2022-12-25T14:43:54.547Z,63.07
2022-12-25T14:46:25.443Z,63.34
2022-12-25T14:49:05.778Z,63.22
2022-12-25T14:51:33.021Z,63.34
2022-12-25T14:54:01.819Z,62.48
2022-12-25T14:56:28.684Z,63.77
2022-12-25T14:58:56.745Z,62.86
2022-12-25T15:01:37.236Z,62.11
2022-12-25T15:04:04.706Z,62.40
2022-12-25T15:06:31.622Z,62.14
2022-12-25T15:09:03.172Z,63.44
2022-12-25T15:11:29.948Z,62.04
2022-12-25T15:13:56.620Z,62.37
2022-12-25T15:16:27.551Z,62.78
2022-12-25T15:18:54.256Z,63.91
2022-12-25T15:21:26.401Z,63.35
2022-12-25T15:23:56.509Z,63.52
2022-12-25T15:26:23.194Z,63.00
2022-12-25T15:28:49.942Z,63.43
2022-12-25T15:31:20.734Z,64.41
2022-12-25T15:33:47.795Z,64.64
2022-12-25T15:36:14.581Z,64.11
2022-12-25T15:38:41.312Z,64.17
2022-12-25T15:41:14.778Z,64.18
2022-12-25T15:43:41.709Z,64.69
2022-12-25T15:46:08.801Z,64.34
2022-12-25T15:48:35.473Z,64.89
2022-12-25T15:51:02.139Z,65.28
2022-12-25T15:53:28.789Z,64.93
2022-12-25T15:55:55.457Z,64.94
2022-12-25T15:58:22.353Z,64.78
2022-12-25T16:00:50.173Z,65.10
2022-12-25T16:03:17.048Z,65.56
2022-12-25T16:05:43.662Z,66.25
2022-12-25T16:08:10.300Z,65.60
2022-12-25T16:10:39.163Z,65.77
2022-12-25T16:13:07.142Z,65.81
2022-12-25T16:15:33.833Z,66.00
2022-12-25T16:18:00.509Z,65.81
2022-12-25T16:20:27.111Z,65.64
2022-12-25T16:22:53.817Z,65.47
2022-12-25T16:25:20.445Z,65.87
2022-12-25T16:27:47.095Z,66.08
2022-12-25T16:30:15.020Z,65.94
2022-12-25T16:32:41.780Z,65.91
2022-12-25T16:35:08.847Z,65.63
2022-12-25T16:37:35.460Z,65.89
2022-12-25T16:40:02.064Z,65.95
2022-12-25T16:42:28.736Z,66.08
2022-12-25T16:44:55.358Z,66.59
2022-12-25T16:47:21.965Z,65.96
2022-12-25T16:49:48.648Z,65.95
2022-12-25T16:52:15.444Z,65.99
2022-12-25T16:54:42.104Z,66.44
2022-12-25T16:57:08.754Z,66.38
2022-12-25T16:59:35.410Z,66.25
2022-12-25T17:02:02.232Z,65.87
2022-12-25T17:04:28.921Z,66.03
2022-12-25T17:06:55.708Z,66.17
2022-12-25T17:09:22.329Z,66.27
2022-12-25T17:11:49.088Z,66.43
2022-12-25T17:14:15.779Z,66.76
2022-12-25T17:16:42.567Z,65.98
2022-12-25T17:19:16.177Z,66.89
2022-12-25T17:21:42.867Z,67.64
2022-12-25T17:24:09.726Z,67.21
2022-12-25T17:26:36.491Z,68.66
2022-12-25T17:29:03.142Z,68.47
2022-12-25T17:31:29.845Z,67.75
2022-12-25T17:33:56.513Z,67.29
2022-12-25T17:36:23.327Z,68.05
2022-12-25T17:38:50.038Z,67.54
2022-12-25T17:41:17.367Z,67.74
2022-12-25T17:43:43.989Z,67.40
2022-12-25T17:46:17.895Z,66.92
2022-12-25T17:48:44.706Z,66.85
2022-12-25T17:51:14.850Z,66.60
2022-12-25T17:53:42.626Z,66.91
2022-12-25T17:56:09.348Z,66.44
2022-12-25T17:58:36.281Z,66.44
2022-12-25T18:01:13.506Z,66.28
2022-12-25T18:03:40.276Z,66.14
2022-12-25T18:06:08.153Z,66.16
2022-12-25T18:08:39.263Z,66.65
2022-12-25T18:11:11.333Z,66.57
2022-12-25T18:13:37.994Z,66.41
2022-12-25T18:16:06.346Z,66.67
2022-12-25T18:18:33.232Z,66.29
2022-12-25T18:20:59.879Z,66.54
2022-12-25T18:23:26.519Z,66.64
2022-12-25T18:25:53.191Z,66.79
2022-12-25T18:28:19.866Z,66.61
2022-12-25T18:30:46.486Z,66.96
2022-12-25T18:33:13.176Z,66.55
2022-12-25T18:35:40.744Z,66.78
2022-12-25T18:38:07.409Z,67.13
2022-12-25T18:40:34.092Z,66.65
2022-12-25T18:43:03.473Z,66.90
2022-12-25T18:45:30.502Z,66.72
2022-12-25T18:47:57.184Z,66.27
2022-12-25T18:50:23.834Z,66.34
2022-12-25T18:52:51.907Z,66.52
2022-12-25T18:55:19.805Z,66.63
2022-12-25T18:57:46.532Z,66.70
2022-12-25T19:00:13.488Z,66.91
2022-12-25T19:02:40.288Z,67.09
2022-12-25T19:05:07.191Z,66.87
2022-12-25T19:07:33.925Z,66.95
2022-12-25T19:10:00.567Z,66.69
2022-12-25T19:12:27.258Z,66.90
2022-12-25T19:14:53.993Z,66.46
2022-12-25T19:17:20.673Z,66.40
2022-12-25T19:19:47.372Z,66.26
2022-12-25T19:22:14.049Z,66.70
2022-12-25T19:24:40.746Z,66.25
2022-12-25T19:27:07.342Z,67.04
2022-12-25T19:29:34.146Z,66.64
2022-12-25T19:32:00.908Z,66.55
2022-12-25T19:34:27.595Z,66.34
2022-12-25T19:36:54.223Z,66.18
2022-12-25T19:39:20.863Z,66.31
2022-12-25T19:41:47.840Z,66.38
2022-12-25T19:44:14.513Z,66.53
2022-12-25T19:46:41.314Z,65.92
2022-12-25T19:49:10.142Z,66.13
2022-12-25T19:51:38.407Z,66.67
2022-12-25T19:54:05.433Z,66.43
2022-12-25T19:56:32.164Z,66.23
2022-12-25T19:58:58.975Z,66.79
2022-12-25T20:01:26.664Z,67.21
2022-12-25T20:03:53.382Z,67.83
2022-12-25T20:06:27.996Z,67.14
2022-12-25T20:08:55.925Z,66.66
2022-12-25T20:11:23.189Z,67.14
2022-12-25T20:13:49.850Z,67.27
2022-12-25T20:16:16.575Z,66.84
2022-12-25T20:18:43.238Z,66.75
2022-12-25T20:21:17.435Z,66.84
2022-12-25T20:23:44.582Z,67.08
2022-12-25T20:26:11.677Z,66.83
2022-12-25T20:28:38.949Z,67.08
2022-12-25T20:31:10.162Z,66.94
2022-12-25T20:33:36.785Z,66.91
2022-12-25T20:36:03.687Z,67.32
2022-12-25T20:38:30.357Z,66.93
2022-12-25T20:43:51.976Z,67.28
2022-12-25T20:46:18.731Z,67.57
2022-12-25T20:48:45.388Z,67.84
2022-12-25T20:51:16.479Z,67.21
2022-12-25T20:53:43.363Z,68.21
2022-12-25T20:56:11.400Z,68.56
2022-12-25T20:58:38.115Z,68.66
2022-12-25T21:01:06.141Z,68.83
2022-12-25T21:03:33.239Z,68.90
2022-12-25T21:05:59.947Z,67.95
2022-12-25T21:08:27.220Z,68.13
2022-12-25T21:10:54.928Z,69.29
2022-12-25T21:13:23.087Z,68.58
2022-12-25T21:15:50.525Z,68.66
2022-12-25T21:18:18.065Z,69.58
2022-12-25T21:20:49.964Z,69.54
2022-12-25T21:23:16.695Z,69.38
2022-12-25T21:25:43.349Z,69.23
2022-12-25T21:28:09.988Z,69.15
2022-12-25T21:30:36.689Z,67.75
2022-12-25T21:33:03.451Z,67.97
2022-12-25T21:35:30.350Z,67.57
2022-12-25T21:37:56.957Z,67.89
2022-12-25T21:40:23.582Z,67.70
2022-12-25T21:42:51.579Z,67.35
2022-12-25T21:45:18.195Z,67.07
2022-12-25T21:48:01.928Z,67.64
2022-12-25T21:50:33.543Z,67.75
2022-12-25T21:53:02.697Z,68.68
2022-12-25T21:55:29.328Z,67.88
2022-12-25T21:57:56.038Z,67.78
2022-12-25T22:00:22.651Z,67.23
2022-12-25T22:02:49.351Z,67.55
2022-12-25T22:05:16.146Z,67.54
2022-12-25T22:07:42.825Z,67.57
2022-12-25T22:10:09.564Z,68.02
2022-12-25T22:12:36.233Z,67.70
2022-12-25T22:15:04.997Z,67.36
2022-12-25T22:17:44.541Z,67.35
2022-12-25T22:20:14.420Z,68.23
2022-12-25T22:22:41.049Z,67.63
2022-12-25T22:25:07.860Z,67.54
2022-12-25T22:27:36.157Z,67.67
2022-12-25T22:30:02.980Z,67.06
2022-12-25T22:32:29.650Z,67.01
2022-12-25T22:34:56.311Z,67.20
2022-12-25T22:37:22.943Z,67.12
2022-12-25T22:39:49.675Z,67.08
2022-12-25T22:42:16.357Z,66.69
2022-12-25T22:44:42.992Z,67.61
2022-12-25T22:47:09.680Z,67.36
2022-12-25T22:49:36.494Z,67.81
2022-12-25T22:52:03.092Z,68.16
2022-12-25T22:54:30.426Z,67.37
2022-12-25T22:56:57.122Z,68.31
2022-12-25T22:59:23.750Z,68.40
2022-12-25T23:01:50.573Z,68.21
2022-12-25T23:04:17.285Z,68.77
2022-12-25T23:06:43.913Z,69.59
2022-12-25T23:09:17.465Z,69.37
2022-12-25T23:11:47.128Z,69.69
2022-12-25T23:14:13.790Z,68.96
2022-12-25T23:16:40.447Z,69.29
2022-12-25T23:19:07.042Z,69.25
2022-12-25T23:21:33.644Z,68.16
2022-12-25T23:24:00.277Z,68.79
2022-12-25T23:26:26.882Z,68.81
2022-12-25T23:28:53.512Z,67.54
2022-12-25T23:31:20.952Z,67.95
2022-12-25T23:33:47.659Z,67.97
2022-12-25T23:36:14.257Z,67.88
2022-12-25T23:38:40.932Z,67.18
2022-12-25T23:41:07.588Z,67.26
2022-12-25T23:43:34.211Z,68.18
2022-12-25T23:46:00.865Z,69.44
2022-12-25T23:48:27.564Z,69.09
2022-12-25T23:50:54.250Z,68.95
2022-12-25T23:53:20.859Z,69.40
2022-12-25T23:55:53.350Z,70.31
2022-12-25T23:58:22.069Z,70.28
